createdAt,value
2017-04-08T00:00:00.511Z,21.74
2017-04-08T00:00:32.829Z,21.74
2017-04-08T00:01:05.144Z,21.8
2017-04-08T00:01:37.475Z,21.74
2017-04-08T00:02:09.815Z,21.76
2017-04-08T00:02:42.135Z,21.76
2017-04-08T00:03:14.439Z,21.78
2017-04-08T00:03:46.749Z,21.76
2017-04-08T00:04:19.065Z,21.76
2017-04-08T00:04:51.382Z,21.76
2017-04-08T00:05:23.689Z,21.77
2017-04-08T00:05:56.010Z,21.68
2017-04-08T00:06:28.317Z,21.76
2017-04-08T00:07:00.745Z,21.76
2017-04-08T00:07:33.061Z,21.76
2017-04-08T00:08:05.378Z,21.74
2017-04-08T00:08:37.710Z,21.78
2017-04-08T00:09:10.057Z,21.8
2017-04-08T00:09:42.407Z,21.78
2017-04-08T00:10:14.723Z,21.77
2017-04-08T00:10:47.037Z,21.76
2017-04-08T00:11:19.344Z,21.77
2017-04-08T00:11:51.663Z,21.77
2017-04-08T00:12:23.967Z,21.76
2017-04-08T00:12:56.284Z,21.8
2017-04-08T00:13:28.585Z,21.77
2017-04-08T00:14:00.906Z,21.68
2017-04-08T00:14:33.230Z,21.76
2017-04-08T00:15:05.548Z,21.7
2017-04-08T00:15:37.863Z,21.8
2017-04-08T00:16:10.189Z,21.74
2017-04-08T00:16:42.495Z,21.76
2017-04-08T00:17:14.819Z,21.73
2017-04-08T00:17:47.129Z,21.8
2017-04-08T00:18:19.442Z,21.73
2017-04-08T00:18:51.763Z,21.82
2017-04-08T00:19:24.081Z,21.73
2017-04-08T00:19:56.395Z,21.73
2017-04-08T00:20:28.702Z,21.71
2017-04-08T00:21:01.009Z,21.74
2017-04-08T00:21:33.316Z,21.73
2017-04-08T00:22:05.621Z,21.74
2017-04-08T00:22:37.931Z,21.7
2017-04-08T00:23:10.224Z,21.76
2017-04-08T00:23:42.525Z,21.7
2017-04-08T00:24:14.825Z,21.73
2017-04-08T00:24:47.140Z,21.71
2017-04-08T00:25:19.440Z,21.76
2017-04-08T00:25:51.740Z,21.74
2017-04-08T00:26:24.066Z,21.74
2017-04-08T00:26:56.404Z,21.73
2017-04-08T00:27:28.703Z,21.78
2017-04-08T00:28:01.001Z,21.73
2017-04-08T00:28:33.315Z,21.74
2017-04-08T00:29:05.610Z,21.73
2017-04-08T00:29:37.922Z,21.82
2017-04-08T00:30:10.230Z,21.76
2017-04-08T00:30:42.550Z,21.73
2017-04-08T00:31:14.857Z,21.74
2017-04-08T00:31:47.178Z,21.73
2017-04-08T00:32:19.536Z,21.67
2017-04-08T00:32:51.853Z,21.7
2017-04-08T00:33:24.175Z,21.78
2017-04-08T00:33:56.479Z,21.74
2017-04-08T00:34:28.801Z,21.66
2017-04-08T00:35:01.105Z,21.73
2017-04-08T00:35:33.427Z,21.71
2017-04-08T00:36:05.750Z,21.78
2017-04-08T00:36:38.062Z,21.76
2017-04-08T00:37:10.381Z,21.78
2017-04-08T00:37:42.685Z,21.76
2017-04-08T00:38:15.016Z,21.8
2017-04-08T00:38:47.340Z,21.78
2017-04-08T00:39:19.670Z,21.7
2017-04-08T00:39:51.998Z,21.68
2017-04-08T00:40:24.335Z,21.68
2017-04-08T00:40:56.631Z,21.71
2017-04-08T00:41:28.952Z,21.68
2017-04-08T00:42:01.252Z,21.74
2017-04-08T00:42:33.573Z,21.67
2017-04-08T00:43:05.917Z,21.68
2017-04-08T00:43:38.240Z,21.71
2017-04-08T00:44:10.561Z,21.61
2017-04-08T00:44:42.894Z,21.71
2017-04-08T00:45:15.214Z,21.7
2017-04-08T00:45:47.514Z,21.66
2017-04-08T00:46:19.823Z,21.71
2017-04-08T00:46:52.121Z,21.71
2017-04-08T00:47:24.427Z,21.67
2017-04-08T00:47:56.726Z,21.66
2017-04-08T00:48:29.045Z,21.66
2017-04-08T00:49:01.383Z,21.66
2017-04-08T00:49:33.685Z,21.66
2017-04-08T00:50:05.986Z,21.66
2017-04-08T00:50:38.298Z,21.74
2017-04-08T00:51:10.624Z,21.68
2017-04-08T00:51:42.929Z,21.73
2017-04-08T00:52:15.254Z,21.73
2017-04-08T00:52:47.560Z,21.71
2017-04-08T00:53:19.872Z,21.66
2017-04-08T00:53:52.183Z,21.66
2017-04-08T00:54:24.500Z,21.61
2017-04-08T00:54:56.810Z,21.67
2017-04-08T00:55:29.115Z,21.68
2017-04-08T00:56:01.439Z,21.64
2017-04-08T00:56:33.744Z,21.62
2017-04-08T00:57:06.060Z,21.67
2017-04-08T00:57:38.369Z,21.7
2017-04-08T00:58:10.683Z,21.62
2017-04-08T00:58:42.992Z,21.7
2017-04-08T00:59:15.313Z,21.64
2017-04-08T00:59:47.628Z,21.66
2017-04-08T01:00:19.932Z,21.64
2017-04-08T01:00:52.247Z,21.68
2017-04-08T01:01:24.557Z,21.59
2017-04-08T01:01:56.881Z,21.67
2017-04-08T01:02:29.203Z,21.64
2017-04-08T01:03:01.511Z,21.66
2017-04-08T01:03:33.828Z,21.62
2017-04-08T01:04:06.157Z,21.71
2017-04-08T01:04:38.476Z,21.66
2017-04-08T01:05:10.781Z,21.66
2017-04-08T01:05:43.097Z,21.67
2017-04-08T01:06:15.403Z,21.66
2017-04-08T01:06:47.701Z,21.62
2017-04-08T01:07:20.019Z,21.66
2017-04-08T01:07:52.322Z,21.67
2017-04-08T01:08:24.644Z,21.66
2017-04-08T01:08:56.948Z,21.67
2017-04-08T01:09:29.261Z,21.66
2017-04-08T01:10:01.575Z,21.71
2017-04-08T01:10:33.901Z,21.68
2017-04-08T01:11:06.212Z,21.66
2017-04-08T01:11:38.524Z,21.7
2017-04-08T01:12:10.838Z,21.7
2017-04-08T01:12:43.927Z,21.59
2017-04-08T01:13:16.189Z,21.66
2017-04-08T01:13:48.426Z,21.61
2017-04-08T01:14:20.680Z,21.64
2017-04-08T01:14:52.926Z,21.71
2017-04-08T01:15:25.185Z,21.66
2017-04-08T01:15:57.441Z,21.67
2017-04-08T01:16:29.715Z,21.59
2017-04-08T01:17:01.962Z,21.67
2017-04-08T01:17:34.208Z,21.7
2017-04-08T01:18:06.484Z,21.58
2017-04-08T01:18:38.761Z,21.58
2017-04-08T01:19:11.034Z,21.67
2017-04-08T01:19:43.278Z,21.64
2017-04-08T01:20:15.532Z,21.64
2017-04-08T01:20:47.767Z,21.64
2017-04-08T01:21:20.547Z,21.59
2017-04-08T01:21:53.505Z,21.67
2017-04-08T01:22:25.772Z,21.61
2017-04-08T01:22:58.023Z,21.61
2017-04-08T01:23:30.272Z,21.71
2017-04-08T01:24:02.531Z,21.66
2017-04-08T01:24:34.800Z,21.67
2017-04-08T01:25:07.070Z,21.58
2017-04-08T01:25:40.169Z,21.67
2017-04-08T01:26:12.420Z,21.66
2017-04-08T01:26:44.669Z,21.61
2017-04-08T01:27:16.915Z,21.64
2017-04-08T01:27:49.153Z,21.61
2017-04-08T01:28:21.413Z,21.66
2017-04-08T01:28:53.637Z,21.56
2017-04-08T01:29:25.897Z,21.58
2017-04-08T01:29:58.132Z,21.66
2017-04-08T01:30:30.374Z,21.61
2017-04-08T01:31:02.644Z,21.61
2017-04-08T01:31:35.517Z,21.58
2017-04-08T01:32:07.771Z,21.62
2017-04-08T01:32:40.016Z,21.64
2017-04-08T01:33:12.249Z,21.61
2017-04-08T01:33:44.477Z,21.52
2017-04-08T01:34:16.723Z,21.64
2017-04-08T01:34:49.487Z,21.62
2017-04-08T01:35:22.537Z,21.66
2017-04-08T01:35:54.912Z,21.61
2017-04-08T01:36:27.195Z,21.62
2017-04-08T01:36:59.456Z,21.66
2017-04-08T01:37:31.739Z,21.56
2017-04-08T01:38:03.986Z,21.55
2017-04-08T01:38:36.248Z,21.55
2017-04-08T01:39:08.985Z,21.59
2017-04-08T01:39:41.235Z,21.61
2017-04-08T01:40:13.481Z,21.59
2017-04-08T01:40:45.733Z,21.62
2017-04-08T01:41:17.974Z,21.59
2017-04-08T01:41:50.230Z,21.49
2017-04-08T01:42:22.471Z,21.64
2017-04-08T01:42:54.852Z,21.61
2017-04-08T01:43:27.118Z,21.58
2017-04-08T01:43:59.366Z,21.58
2017-04-08T01:44:31.608Z,21.53
2017-04-08T01:45:03.859Z,21.66
2017-04-08T01:45:36.119Z,21.58
2017-04-08T01:46:09.057Z,21.49
2017-04-08T01:46:41.310Z,21.58
2017-04-08T01:47:13.567Z,21.64
2017-04-08T01:47:45.816Z,21.56
2017-04-08T01:48:18.123Z,21.61
2017-04-08T01:48:50.382Z,21.49
2017-04-08T01:49:24.100Z,21.59
2017-04-08T01:49:56.354Z,21.49
2017-04-08T01:50:28.612Z,21.55
2017-04-08T01:51:00.866Z,21.49
2017-04-08T01:51:33.134Z,21.49
2017-04-08T01:52:06.014Z,21.58
2017-04-08T01:52:38.341Z,21.58
2017-04-08T01:53:10.648Z,21.52
2017-04-08T01:53:42.960Z,21.56
2017-04-08T01:54:15.283Z,21.55
2017-04-08T01:54:47.590Z,21.53
2017-04-08T01:55:19.905Z,21.56
2017-04-08T01:55:52.205Z,21.48
2017-04-08T01:56:24.521Z,21.51
2017-04-08T01:56:56.818Z,21.56
2017-04-08T01:57:29.143Z,21.52
2017-04-08T01:58:01.460Z,21.61
2017-04-08T01:58:33.775Z,21.56
2017-04-08T01:59:06.104Z,21.51
2017-04-08T01:59:38.405Z,21.53
2017-04-08T02:00:10.714Z,21.56
2017-04-08T02:00:43.017Z,21.53
2017-04-08T02:01:15.336Z,21.51
2017-04-08T02:01:47.644Z,21.53
2017-04-08T02:02:19.959Z,21.55
2017-04-08T02:02:52.270Z,21.62
2017-04-08T02:03:24.588Z,21.52
2017-04-08T02:03:56.891Z,21.53
2017-04-08T02:04:29.189Z,21.55
2017-04-08T02:05:01.511Z,21.55
2017-04-08T02:05:33.828Z,21.55
2017-04-08T02:06:06.134Z,21.56
2017-04-08T02:06:38.439Z,21.58
2017-04-08T02:07:10.754Z,21.55
2017-04-08T02:07:43.065Z,21.55
2017-04-08T02:08:15.390Z,21.52
2017-04-08T02:08:47.697Z,21.56
2017-04-08T02:09:19.996Z,21.59
2017-04-08T02:09:52.300Z,21.51
2017-04-08T02:10:24.611Z,21.53
2017-04-08T02:10:56.929Z,21.55
2017-04-08T02:11:29.238Z,21.55
2017-04-08T02:12:01.543Z,21.45
2017-04-08T02:12:33.864Z,21.58
2017-04-08T02:13:06.191Z,21.59
2017-04-08T02:13:38.509Z,21.55
2017-04-08T02:14:10.832Z,21.53
2017-04-08T02:14:43.133Z,21.62
2017-04-08T02:15:15.449Z,21.51
2017-04-08T02:15:47.748Z,21.59
2017-04-08T02:16:20.062Z,21.61
2017-04-08T02:16:52.365Z,21.58
2017-04-08T02:17:24.687Z,21.59
2017-04-08T02:17:56.998Z,21.59
2017-04-08T02:18:29.300Z,21.48
2017-04-08T02:19:01.604Z,21.48
2017-04-08T02:19:33.895Z,21.48
2017-04-08T02:20:06.211Z,21.48
2017-04-08T02:20:38.540Z,21.48
2017-04-08T02:21:10.842Z,21.43
2017-04-08T02:21:43.153Z,21.55
2017-04-08T02:22:15.476Z,21.49
2017-04-08T02:22:47.726Z,21.46
2017-04-08T02:23:19.985Z,21.46
2017-04-08T02:23:52.247Z,21.49
2017-04-08T02:24:24.508Z,21.56
2017-04-08T02:24:56.749Z,21.49
2017-04-08T02:25:29.187Z,21.48
2017-04-08T02:26:01.460Z,21.43
2017-04-08T02:26:33.729Z,21.4
2017-04-08T02:27:05.968Z,21.45
2017-04-08T02:27:38.343Z,21.46
2017-04-08T02:28:10.640Z,21.48
2017-04-08T02:28:42.915Z,21.46
2017-04-08T02:29:16.147Z,21.45
2017-04-08T02:29:48.428Z,21.49
2017-04-08T02:30:20.669Z,21.52
2017-04-08T02:30:52.926Z,21.46
2017-04-08T02:31:25.173Z,21.46
2017-04-08T02:31:57.423Z,21.52
2017-04-08T02:32:29.732Z,21.43
2017-04-08T02:33:02.048Z,21.53
2017-04-08T02:33:34.364Z,21.46
2017-04-08T02:34:06.683Z,21.45
2017-04-08T02:34:38.982Z,21.46
2017-04-08T02:35:11.292Z,21.46
2017-04-08T02:35:43.591Z,21.53
2017-04-08T02:36:15.895Z,21.48
2017-04-08T02:36:48.206Z,21.49
2017-04-08T02:37:20.524Z,21.49
2017-04-08T02:37:52.823Z,21.45
2017-04-08T02:38:25.146Z,21.43
2017-04-08T02:38:57.465Z,21.49
2017-04-08T02:39:29.776Z,21.46
2017-04-08T02:40:02.107Z,21.49
2017-04-08T02:40:34.408Z,21.46
2017-04-08T02:41:06.711Z,21.48
2017-04-08T02:41:39.017Z,21.46
2017-04-08T02:42:11.312Z,21.51
2017-04-08T02:42:43.626Z,21.52
2017-04-08T02:43:15.938Z,21.48
2017-04-08T02:43:48.250Z,21.4
2017-04-08T02:44:20.554Z,21.49
2017-04-08T02:44:52.858Z,21.49
2017-04-08T02:45:25.178Z,21.51
2017-04-08T02:45:57.516Z,21.51
2017-04-08T02:46:29.830Z,21.56
2017-04-08T02:47:02.141Z,21.45
2017-04-08T02:47:34.461Z,21.48
2017-04-08T02:48:06.778Z,21.46
2017-04-08T02:48:39.110Z,21.48
2017-04-08T02:49:11.405Z,21.49
2017-04-08T02:49:43.705Z,21.45
2017-04-08T02:50:16.026Z,21.49
2017-04-08T02:50:48.326Z,21.49
2017-04-08T02:51:20.623Z,21.53
2017-04-08T02:51:52.925Z,21.43
2017-04-08T02:52:25.232Z,21.53
2017-04-08T02:52:57.538Z,21.46
2017-04-08T02:53:29.842Z,21.52
2017-04-08T02:54:02.147Z,21.55
2017-04-08T02:54:34.484Z,21.46
2017-04-08T02:55:06.802Z,21.52
2017-04-08T02:55:39.117Z,21.49
2017-04-08T02:56:11.427Z,21.51
2017-04-08T02:56:43.723Z,21.51
2017-04-08T02:57:16.032Z,21.43
2017-04-08T02:57:48.343Z,21.48
2017-04-08T02:58:20.640Z,21.51
2017-04-08T02:58:52.979Z,21.46
2017-04-08T02:59:25.290Z,21.46
2017-04-08T02:59:57.600Z,21.48
2017-04-08T03:00:29.920Z,21.49
2017-04-08T03:01:02.217Z,21.43
2017-04-08T03:01:34.550Z,21.46
2017-04-08T03:02:06.858Z,21.45
2017-04-08T03:02:39.174Z,21.46
2017-04-08T03:03:11.468Z,21.46
2017-04-08T03:03:43.778Z,21.46
2017-04-08T03:04:16.096Z,21.49
2017-04-08T03:04:48.397Z,21.41
2017-04-08T03:05:20.704Z,21.52
2017-04-08T03:05:53.008Z,21.37
2017-04-08T03:06:25.323Z,21.46
2017-04-08T03:06:57.609Z,21.41
2017-04-08T03:07:29.920Z,21.46
2017-04-08T03:08:02.236Z,21.46
2017-04-08T03:08:34.531Z,21.51
2017-04-08T03:09:06.846Z,21.43
2017-04-08T03:09:39.153Z,21.4
2017-04-08T03:10:11.455Z,21.43
2017-04-08T03:10:43.770Z,21.46
2017-04-08T03:11:16.072Z,21.43
2017-04-08T03:11:48.375Z,21.41
2017-04-08T03:12:20.687Z,21.43
2017-04-08T03:12:52.993Z,21.41
2017-04-08T03:13:25.301Z,21.46
2017-04-08T03:13:57.605Z,21.4
2017-04-08T03:14:29.918Z,21.43
2017-04-08T03:15:02.237Z,21.4
2017-04-08T03:15:34.535Z,21.4
2017-04-08T03:16:06.840Z,21.4
2017-04-08T03:16:39.143Z,21.38
2017-04-08T03:17:11.445Z,21.43
2017-04-08T03:17:43.752Z,21.48
2017-04-08T03:18:16.065Z,21.38
2017-04-08T03:18:48.395Z,21.41
2017-04-08T03:19:20.699Z,21.43
2017-04-08T03:19:53.010Z,21.4
2017-04-08T03:20:25.324Z,21.43
2017-04-08T03:20:57.628Z,21.41
2017-04-08T03:21:29.944Z,21.38
2017-04-08T03:22:02.250Z,21.43
2017-04-08T03:22:34.498Z,21.4
2017-04-08T03:23:06.756Z,21.41
2017-04-08T03:23:38.993Z,21.38
2017-04-08T03:24:11.269Z,21.4
2017-04-08T03:24:43.532Z,21.4
2017-04-08T03:25:15.777Z,21.43
2017-04-08T03:25:48.654Z,21.38
2017-04-08T03:26:20.912Z,21.43
2017-04-08T03:26:54.005Z,21.43
2017-04-08T03:27:26.254Z,21.43
2017-04-08T03:27:58.479Z,21.37
2017-04-08T03:28:30.808Z,21.43
2017-04-08T03:29:03.079Z,21.4
2017-04-08T03:29:35.315Z,21.41
2017-04-08T03:30:08.198Z,21.41
2017-04-08T03:30:40.478Z,21.31
2017-04-08T03:31:12.726Z,21.4
2017-04-08T03:31:44.975Z,21.4
2017-04-08T03:32:17.212Z,21.31
2017-04-08T03:32:49.451Z,21.43
2017-04-08T03:33:22.678Z,21.43
2017-04-08T03:33:54.946Z,21.33
2017-04-08T03:34:28.051Z,21.36
2017-04-08T03:35:00.265Z,21.38
2017-04-08T03:35:32.545Z,21.4
2017-04-08T03:36:04.826Z,21.41
2017-04-08T03:36:37.078Z,21.36
2017-04-08T03:37:09.320Z,21.4
2017-04-08T03:37:41.581Z,21.38
2017-04-08T03:38:13.838Z,21.37
2017-04-08T03:38:46.079Z,21.34
2017-04-08T03:39:18.314Z,21.36
2017-04-08T03:39:50.565Z,21.38
2017-04-08T03:40:22.817Z,21.38
2017-04-08T03:40:55.079Z,21.36
2017-04-08T03:41:27.311Z,21.4
2017-04-08T03:41:59.550Z,21.37
2017-04-08T03:42:31.843Z,21.36
2017-04-08T03:43:04.154Z,21.33
2017-04-08T03:43:36.449Z,21.41
2017-04-08T03:44:08.753Z,21.38
2017-04-08T03:44:41.089Z,21.48
2017-04-08T03:45:13.409Z,21.34
2017-04-08T03:45:45.720Z,21.37
2017-04-08T03:46:18.030Z,21.36
2017-04-08T03:46:50.333Z,21.34
2017-04-08T03:47:22.648Z,21.43
2017-04-08T03:47:54.960Z,21.36
2017-04-08T03:48:27.267Z,21.36
2017-04-08T03:48:59.567Z,21.34
2017-04-08T03:49:31.864Z,21.34
2017-04-08T03:50:04.187Z,21.34
2017-04-08T03:50:36.490Z,21.34
2017-04-08T03:51:08.790Z,21.3
2017-04-08T03:51:41.091Z,21.36
2017-04-08T03:52:13.396Z,21.34
2017-04-08T03:52:45.708Z,21.34
2017-04-08T03:53:18.034Z,21.34
2017-04-08T03:53:50.347Z,21.38
2017-04-08T03:54:22.662Z,21.36
2017-04-08T03:54:54.951Z,21.34
2017-04-08T03:55:27.264Z,21.34
2017-04-08T03:55:59.593Z,21.36
2017-04-08T03:56:31.893Z,21.38
2017-04-08T03:57:04.195Z,21.37
2017-04-08T03:57:36.516Z,21.37
2017-04-08T03:58:08.834Z,21.4
2017-04-08T03:58:41.150Z,21.37
2017-04-08T03:59:13.496Z,21.4
2017-04-08T03:59:45.816Z,21.38
2017-04-08T04:00:18.129Z,21.34
2017-04-08T04:00:50.440Z,21.4
2017-04-08T04:01:22.745Z,21.36
2017-04-08T04:01:55.060Z,21.34
2017-04-08T04:02:27.359Z,21.36
2017-04-08T04:03:00.663Z,21.36
2017-04-08T04:03:32.971Z,21.33
2017-04-08T04:04:05.289Z,21.34
2017-04-08T04:04:37.633Z,21.33
2017-04-08T04:05:09.948Z,21.34
2017-04-08T04:05:42.290Z,21.36
2017-04-08T04:06:14.601Z,21.37
2017-04-08T04:06:46.916Z,21.34
2017-04-08T04:07:19.223Z,21.34
2017-04-08T04:07:51.553Z,21.37
2017-04-08T04:08:23.867Z,21.34
2017-04-08T04:08:56.173Z,21.34
2017-04-08T04:09:28.498Z,21.31
2017-04-08T04:10:00.813Z,21.4
2017-04-08T04:10:33.106Z,21.31
2017-04-08T04:11:05.414Z,21.36
2017-04-08T04:11:37.724Z,21.34
2017-04-08T04:12:10.054Z,21.34
2017-04-08T04:12:42.372Z,21.33
2017-04-08T04:13:14.676Z,21.37
2017-04-08T04:13:46.978Z,21.33
2017-04-08T04:14:19.289Z,21.33
2017-04-08T04:14:51.594Z,21.36
2017-04-08T04:15:23.897Z,21.4
2017-04-08T04:15:56.198Z,21.34
2017-04-08T04:16:28.503Z,21.33
2017-04-08T04:17:00.812Z,21.36
2017-04-08T04:17:33.121Z,21.37
2017-04-08T04:18:05.429Z,21.38
2017-04-08T04:18:37.733Z,21.33
2017-04-08T04:19:10.042Z,21.37
2017-04-08T04:19:42.350Z,21.3
2017-04-08T04:20:14.664Z,21.4
2017-04-08T04:20:46.968Z,21.28
2017-04-08T04:21:19.263Z,21.34
2017-04-08T04:21:51.570Z,21.38
2017-04-08T04:22:23.885Z,21.34
2017-04-08T04:22:56.185Z,21.4
2017-04-08T04:23:28.494Z,21.34
2017-04-08T04:24:00.814Z,21.34
2017-04-08T04:24:33.128Z,21.34
2017-04-08T04:25:05.445Z,21.33
2017-04-08T04:25:37.747Z,21.33
2017-04-08T04:26:10.056Z,21.36
2017-04-08T04:26:42.363Z,21.31
2017-04-08T04:27:14.678Z,21.34
2017-04-08T04:27:46.996Z,21.38
2017-04-08T04:28:19.309Z,21.38
2017-04-08T04:28:51.625Z,21.31
2017-04-08T04:29:23.944Z,21.34
2017-04-08T04:29:56.254Z,21.34
2017-04-08T04:30:28.573Z,21.37
2017-04-08T04:31:00.889Z,21.34
2017-04-08T04:31:33.196Z,21.37
2017-04-08T04:32:05.531Z,21.3
2017-04-08T04:32:37.769Z,21.31
2017-04-08T04:33:09.997Z,21.33
2017-04-08T04:33:42.244Z,21.34
2017-04-08T04:34:14.479Z,21.37
2017-04-08T04:34:46.729Z,21.31
2017-04-08T04:35:18.966Z,21.28
2017-04-08T04:35:51.201Z,21.33
2017-04-08T04:36:23.457Z,21.31
2017-04-08T04:36:55.742Z,21.36
2017-04-08T04:37:27.986Z,21.34
2017-04-08T04:38:00.332Z,21.33
2017-04-08T04:38:32.574Z,21.3
2017-04-08T04:39:04.825Z,21.34
2017-04-08T04:39:37.733Z,21.34
2017-04-08T04:40:09.987Z,21.3
2017-04-08T04:40:42.262Z,21.33
2017-04-08T04:41:14.499Z,21.37
2017-04-08T04:41:46.787Z,21.33
2017-04-08T04:42:19.130Z,21.31
2017-04-08T04:42:51.383Z,21.3
2017-04-08T04:43:23.631Z,21.37
2017-04-08T04:43:55.887Z,21.31
2017-04-08T04:44:28.133Z,21.31
2017-04-08T04:45:00.391Z,21.33
2017-04-08T04:45:32.645Z,21.28
2017-04-08T04:46:04.923Z,21.38
2017-04-08T04:46:37.189Z,21.33
2017-04-08T04:47:09.444Z,21.27
2017-04-08T04:47:41.705Z,21.31
2017-04-08T04:48:13.961Z,21.34
2017-04-08T04:48:46.210Z,21.37
2017-04-08T04:49:18.446Z,21.3
2017-04-08T04:49:51.574Z,21.33
2017-04-08T04:50:23.830Z,21.28
2017-04-08T04:50:56.215Z,21.33
2017-04-08T04:51:28.490Z,21.31
2017-04-08T04:52:00.735Z,21.33
2017-04-08T04:52:33.012Z,21.33
2017-04-08T04:53:05.284Z,21.34
2017-04-08T04:53:37.539Z,21.34
2017-04-08T04:54:09.809Z,21.34
2017-04-08T04:54:42.065Z,21.33
2017-04-08T04:55:14.321Z,21.34
2017-04-08T04:55:46.553Z,21.34
2017-04-08T04:56:18.809Z,21.36
2017-04-08T04:56:51.075Z,21.33
2017-04-08T04:57:23.337Z,21.36
2017-04-08T04:57:56.119Z,21.3
2017-04-08T04:58:28.367Z,21.31
2017-04-08T04:59:00.622Z,21.34
2017-04-08T04:59:33.619Z,21.31
2017-04-08T05:00:05.877Z,21.3
2017-04-08T05:00:38.133Z,21.28
2017-04-08T05:01:10.491Z,21.33
2017-04-08T05:01:42.732Z,21.25
2017-04-08T05:02:14.992Z,21.25
2017-04-08T05:02:47.310Z,21.33
2017-04-08T05:03:19.637Z,21.34
2017-04-08T05:03:51.975Z,21.33
2017-04-08T05:04:24.297Z,21.36
2017-04-08T05:04:56.606Z,21.3
2017-04-08T05:05:28.902Z,21.31
2017-04-08T05:06:01.216Z,21.31
2017-04-08T05:06:33.522Z,21.33
2017-04-08T05:07:05.827Z,21.31
2017-04-08T05:07:38.141Z,21.33
2017-04-08T05:08:10.456Z,21.25
2017-04-08T05:08:42.767Z,21.36
2017-04-08T05:09:15.081Z,21.36
2017-04-08T05:09:47.395Z,21.34
2017-04-08T05:10:19.707Z,21.33
2017-04-08T05:10:52.008Z,21.31
2017-04-08T05:11:24.321Z,21.33
2017-04-08T05:11:56.627Z,21.27
2017-04-08T05:12:28.884Z,21.31
2017-04-08T05:13:01.146Z,21.31
2017-04-08T05:13:33.399Z,21.3
2017-04-08T05:14:05.670Z,21.28
2017-04-08T05:14:37.901Z,21.34
2017-04-08T05:15:10.148Z,21.34
2017-04-08T05:15:42.422Z,21.36
2017-04-08T05:16:14.671Z,21.34
2017-04-08T05:16:46.940Z,21.34
2017-04-08T05:17:19.190Z,21.27
2017-04-08T05:17:51.433Z,21.33
2017-04-08T05:18:24.547Z,21.31
2017-04-08T05:18:56.798Z,21.31
2017-04-08T05:19:29.109Z,21.36
2017-04-08T05:20:02.058Z,21.33
2017-04-08T05:20:34.296Z,21.36
2017-04-08T05:21:06.545Z,21.33
2017-04-08T05:21:38.803Z,21.33
2017-04-08T05:22:11.108Z,21.28
2017-04-08T05:22:43.386Z,21.33
2017-04-08T05:23:15.644Z,21.33
2017-04-08T05:23:47.923Z,21.28
2017-04-08T05:24:20.174Z,21.31
2017-04-08T05:24:52.554Z,21.3
2017-04-08T05:25:24.814Z,21.3
2017-04-08T05:25:57.065Z,21.27
2017-04-08T05:26:29.315Z,21.27
2017-04-08T05:27:01.577Z,21.3
2017-04-08T05:27:33.818Z,21.3
2017-04-08T05:28:06.069Z,21.37
2017-04-08T05:28:38.308Z,21.36
2017-04-08T05:29:11.145Z,21.33
2017-04-08T05:29:43.421Z,21.31
2017-04-08T05:30:16.547Z,21.33
2017-04-08T05:30:48.778Z,21.33
2017-04-08T05:31:21.027Z,21.33
2017-04-08T05:31:53.337Z,21.33
2017-04-08T05:32:25.589Z,21.33
2017-04-08T05:32:57.833Z,21.33
2017-04-08T05:33:30.080Z,21.3
2017-04-08T05:34:02.334Z,21.34
2017-04-08T05:34:34.581Z,21.37
2017-04-08T05:35:07.605Z,21.36
2017-04-08T05:35:39.869Z,21.34
2017-04-08T05:36:12.121Z,21.37
2017-04-08T05:36:44.370Z,21.34
2017-04-08T05:37:17.108Z,21.3
2017-04-08T05:37:49.380Z,21.34
2017-04-08T05:38:21.655Z,21.37
2017-04-08T05:38:53.884Z,21.36
2017-04-08T05:39:26.125Z,21.36
2017-04-08T05:39:58.369Z,21.4
2017-04-08T05:40:30.603Z,21.38
2017-04-08T05:41:02.866Z,21.38
2017-04-08T05:41:35.182Z,21.38
2017-04-08T05:42:07.423Z,21.34
2017-04-08T05:42:39.661Z,21.33
2017-04-08T05:43:11.933Z,21.31
2017-04-08T05:43:44.180Z,21.37
2017-04-08T05:44:16.432Z,21.36
2017-04-08T05:44:48.675Z,21.28
2017-04-08T05:45:20.914Z,21.37
2017-04-08T05:45:53.161Z,21.37
2017-04-08T05:46:25.403Z,21.34
2017-04-08T05:46:57.783Z,21.33
2017-04-08T05:47:30.031Z,21.34
2017-04-08T05:48:02.288Z,21.36
2017-04-08T05:48:35.183Z,21.34
2017-04-08T05:49:07.451Z,21.4
2017-04-08T05:49:39.696Z,21.34
2017-04-08T05:50:11.964Z,21.34
2017-04-08T05:50:44.332Z,21.4
2017-04-08T05:51:16.577Z,21.33
2017-04-08T05:51:50.223Z,21.38
2017-04-08T05:52:22.544Z,21.37
2017-04-08T05:52:54.847Z,21.37
2017-04-08T05:53:27.186Z,21.31
2017-04-08T05:53:59.497Z,21.37
2017-04-08T05:54:31.792Z,21.33
2017-04-08T05:55:04.096Z,21.34
2017-04-08T05:55:36.407Z,21.41
2017-04-08T05:56:08.732Z,21.34
2017-04-08T05:56:41.037Z,21.38
2017-04-08T05:57:13.365Z,21.38
2017-04-08T05:57:45.691Z,21.43
2017-04-08T05:58:18.020Z,21.38
2017-04-08T05:58:50.328Z,21.41
2017-04-08T05:59:22.643Z,21.4
2017-04-08T05:59:54.938Z,21.45
2017-04-08T06:00:27.242Z,21.43
2017-04-08T06:00:59.553Z,21.4
2017-04-08T06:01:31.871Z,21.43
2017-04-08T06:02:04.183Z,21.45
2017-04-08T06:02:36.437Z,21.48
2017-04-08T06:03:08.795Z,21.51
2017-04-08T06:03:41.052Z,21.46
2017-04-08T06:04:14.171Z,21.51
2017-04-08T06:04:47.200Z,21.51
2017-04-08T06:05:19.467Z,21.45
2017-04-08T06:05:52.757Z,21.49
2017-04-08T06:06:25.001Z,21.37
2017-04-08T06:06:57.242Z,21.51
2017-04-08T06:07:29.493Z,21.49
2017-04-08T06:08:02.277Z,21.45
2017-04-08T06:08:34.530Z,21.51
2017-04-08T06:09:06.757Z,21.49
2017-04-08T06:09:39.007Z,21.51
2017-04-08T06:10:11.257Z,21.52
2017-04-08T06:10:43.521Z,21.52
2017-04-08T06:11:15.771Z,21.52
2017-04-08T06:11:48.031Z,21.52
2017-04-08T06:12:20.322Z,21.52
2017-04-08T06:12:52.662Z,21.48
2017-04-08T06:13:24.981Z,21.48
2017-04-08T06:13:57.313Z,21.48
2017-04-08T06:14:29.683Z,21.46
2017-04-08T06:15:02.019Z,21.52
2017-04-08T06:15:34.338Z,21.58
2017-04-08T06:16:06.662Z,21.56
2017-04-08T06:16:38.972Z,21.51
2017-04-08T06:17:11.316Z,21.55
2017-04-08T06:17:43.609Z,21.55
2017-04-08T06:18:15.943Z,21.52
2017-04-08T06:18:48.265Z,21.53
2017-04-08T06:19:20.586Z,21.52
2017-04-08T06:19:52.894Z,21.56
2017-04-08T06:20:25.188Z,21.52
2017-04-08T06:20:57.491Z,21.58
2017-04-08T06:21:29.807Z,21.58
2017-04-08T06:22:02.119Z,21.56
2017-04-08T06:22:34.378Z,21.49
2017-04-08T06:23:06.638Z,21.61
2017-04-08T06:23:38.873Z,21.58
2017-04-08T06:24:11.759Z,21.62
2017-04-08T06:24:44.124Z,21.59
2017-04-08T06:25:16.361Z,21.55
2017-04-08T06:25:48.621Z,21.64
2017-04-08T06:26:21.787Z,21.61
2017-04-08T06:26:54.056Z,21.64
2017-04-08T06:27:26.303Z,21.66
2017-04-08T06:27:58.672Z,21.68
2017-04-08T06:28:30.917Z,21.59
2017-04-08T06:29:03.168Z,21.68
2017-04-08T06:29:35.409Z,21.62
2017-04-08T06:30:07.671Z,21.62
2017-04-08T06:30:39.914Z,21.62
2017-04-08T06:31:12.186Z,21.68
2017-04-08T06:31:45.222Z,21.59
2017-04-08T06:32:17.457Z,21.62
2017-04-08T06:32:49.699Z,21.66
2017-04-08T06:33:21.961Z,21.66
2017-04-08T06:33:54.217Z,21.68
2017-04-08T06:34:26.457Z,21.7
2017-04-08T06:34:58.714Z,21.71
2017-04-08T06:35:30.987Z,21.74
2017-04-08T06:36:04.135Z,21.8
2017-04-08T06:36:37.162Z,21.7
2017-04-08T06:37:09.446Z,21.66
2017-04-08T06:37:41.722Z,21.73
2017-04-08T06:38:13.965Z,21.7
2017-04-08T06:38:46.305Z,21.71
2017-04-08T06:39:18.544Z,21.7
2017-04-08T06:39:50.791Z,21.73
2017-04-08T06:40:23.052Z,21.76
2017-04-08T06:40:56.088Z,21.71
2017-04-08T06:41:28.317Z,21.74
2017-04-08T06:42:00.583Z,21.77
2017-04-08T06:42:32.898Z,21.73
2017-04-08T06:43:05.219Z,21.77
2017-04-08T06:43:37.515Z,21.73
2017-04-08T06:44:09.811Z,21.77
2017-04-08T06:44:42.122Z,21.82
2017-04-08T06:45:14.423Z,21.8
2017-04-08T06:45:46.734Z,21.8
2017-04-08T06:46:19.037Z,21.83
2017-04-08T06:46:51.360Z,21.78
2017-04-08T06:47:23.657Z,21.8
2017-04-08T06:47:55.950Z,21.8
2017-04-08T06:48:28.268Z,21.83
2017-04-08T06:49:00.569Z,21.82
2017-04-08T06:49:32.879Z,21.8
2017-04-08T06:50:05.182Z,21.78
2017-04-08T06:50:37.494Z,21.82
2017-04-08T06:51:09.810Z,21.76
2017-04-08T06:51:42.117Z,21.77
2017-04-08T06:52:14.429Z,21.93
2017-04-08T06:52:46.737Z,21.82
2017-04-08T06:53:19.042Z,21.76
2017-04-08T06:53:51.360Z,21.85
2017-04-08T06:54:23.672Z,21.73
2017-04-08T06:54:55.968Z,21.9
2017-04-08T06:55:28.291Z,21.89
2017-04-08T06:56:00.618Z,21.86
2017-04-08T06:56:32.930Z,21.9
2017-04-08T06:57:05.251Z,21.86
2017-04-08T06:57:37.567Z,21.92